sensor_id;sensor_type;location;lat;lon;timestamp;temperature;humidity
3866;DHT22;1948;53.250;10.412;2023-03-19T00:00:51;12.20;99.90
3866;DHT22;1948;53.250;10.412;2023-03-19T00:03:18;12.20;99.90
3866;DHT22;1948;53.250;10.412;2023-03-19T00:05:52;12.20;99.90
3866;DHT22;1948;53.250;10.412;2023-03-19T00:08:19;12.10;99.90
3866;DHT22;1948;53.250;10.412;2023-03-19T00:10:47;12.20;99.90
3866;DHT22;1948;53.250;10.412;2023-03-19T00:13:17;12.10;99.90
3866;DHT22;1948;53.250;10.412;2023-03-19T00:15:44;12.10;99.90
3866;DHT22;1948;53.250;10.412;2023-03-19T00:18:12;12.10;99.90
3866;DHT22;1948;53.250;10.412;2023-03-19T00:20:40;12.00;99.90
3866;DHT22;1948;53.250;10.412;2023-03-19T00:23:09;12.00;99.90
3866;DHT22;1948;53.250;10.412;2023-03-19T00:25:36;12.00;99.90
3866;DHT22;1948;53.250;10.412;2023-03-19T00:28:03;12.00;99.90
3866;DHT22;1948;53.250;10.412;2023-03-19T00:30:33;11.90;99.90
3866;DHT22;1948;53.250;10.412;2023-03-19T00:33:03;11.90;99.90
3866;DHT22;1948;53.250;10.412;2023-03-19T00:35:30;11.80;99.90
3866;DHT22;1948;53.250;10.412;2023-03-19T00:37:57;11.80;99.90
3866;DHT22;1948;53.250;10.412;2023-03-19T00:40:24;11.70;99.90
3866;DHT22;1948;53.250;10.412;2023-03-19T00:42:54;11.80;99.90
3866;DHT22;1948;53.250;10.412;2023-03-19T00:45:21;11.90;99.90
3866;DHT22;1948;53.250;10.412;2023-03-19T00:47:48;12.00;99.90
3866;DHT22;1948;53.250;10.412;2023-03-19T00:50:15;12.00;99.90
3866;DHT22;1948;53.250;10.412;2023-03-19T00:52:45;12.00;99.90
3866;DHT22;1948;53.250;10.412;2023-03-19T00:55:12;12.00;99.90
3866;DHT22;1948;53.250;10.412;2023-03-19T00:57:39;12.00;99.90
3866;DHT22;1948;53.250;10.412;2023-03-19T01:00:14;12.00;99.90
3866;DHT22;1948;53.250;10.412;2023-03-19T01:02:46;12.00;99.90
3866;DHT22;1948;53.250;10.412;2023-03-19T01:05:15;12.00;99.90
3866;DHT22;1948;53.250;10.412;2023-03-19T01:07:42;12.00;99.90
3866;DHT22;1948;53.250;10.412;2023-03-19T01:10:12;12.00;99.90
3866;DHT22;1948;53.250;10.412;2023-03-19T01:12:39;12.00;99.90
3866;DHT22;1948;53.250;10.412;2023-03-19T01:15:06;11.90;99.90
3866;DHT22;1948;53.250;10.412;2023-03-19T01:17:34;11.90;99.90
3866;DHT22;1948;53.250;10.412;2023-03-19T01:20:02;11.80;99.90
3866;DHT22;1948;53.250;10.412;2023-03-19T01:22:30;11.80;99.90
3866;DHT22;1948;53.250;10.412;2023-03-19T01:25:02;11.80;99.90
3866;DHT22;1948;53.250;10.412;2023-03-19T01:27:30;11.80;99.90
3866;DHT22;1948;53.250;10.412;2023-03-19T01:29:59;11.80;99.90
3866;DHT22;1948;53.250;10.412;2023-03-19T01:32:26;11.80;99.90
3866;DHT22;1948;53.250;10.412;2023-03-19T01:34:53;11.70;99.90
3866;DHT22;1948;53.250;10.412;2023-03-19T01:37:25;11.70;99.90
3866;DHT22;1948;53.250;10.412;2023-03-19T01:39:54;11.70;99.90
3866;DHT22;1948;53.250;10.412;2023-03-19T01:42:24;11.60;99.90
3866;DHT22;1948;53.250;10.412;2023-03-19T01:44:51;11.60;99.90
3866;DHT22;1948;53.250;10.412;2023-03-19T01:47:36;11.60;99.90
3866;DHT22;1948;53.250;10.412;2023-03-19T01:50:05;11.60;99.90
3866;DHT22;1948;53.250;10.412;2023-03-19T01:52:35;11.50;99.90
3866;DHT22;1948;53.250;10.412;2023-03-19T01:55:04;11.40;99.90
3866;DHT22;1948;53.250;10.412;2023-03-19T01:57:33;11.30;99.90
3866;DHT22;1948;53.250;10.412;2023-03-19T02:00:06;11.30;99.90
3866;DHT22;1948;53.250;10.412;2023-03-19T02:02:34;11.30;99.90
3866;DHT22;1948;53.250;10.412;2023-03-19T02:05:11;11.30;99.90
3866;DHT22;1948;53.250;10.412;2023-03-19T02:07:44;11.20;99.90
3866;DHT22;1948;53.250;10.412;2023-03-19T02:10:14;11.20;99.90
3866;DHT22;1948;53.250;10.412;2023-03-19T02:12:42;11.10;99.90
3866;DHT22;1948;53.250;10.412;2023-03-19T02:15:12;11.10;99.90
3866;DHT22;1948;53.250;10.412;2023-03-19T02:17:41;11.10;99.90
3866;DHT22;1948;53.250;10.412;2023-03-19T02:23:34;11.00;99.90
3866;DHT22;1948;53.250;10.412;2023-03-19T02:26:16;11.00;99.90
3866;DHT22;1948;53.250;10.412;2023-03-19T02:28:46;10.90;99.90
3866;DHT22;1948;53.250;10.412;2023-03-19T02:31:16;10.90;99.90
3866;DHT22;1948;53.250;10.412;2023-03-19T02:36:51;10.80;99.90
3866;DHT22;1948;53.250;10.412;2023-03-19T02:41:56;10.80;99.90
3866;DHT22;1948;53.250;10.412;2023-03-19T02:44:24;10.80;99.90
3866;DHT22;1948;53.250;10.412;2023-03-19T02:46:52;10.70;99.90
3866;DHT22;1948;53.250;10.412;2023-03-19T02:49:19;10.70;99.90
3866;DHT22;1948;53.250;10.412;2023-03-19T02:51:46;10.60;99.90
3866;DHT22;1948;53.250;10.412;2023-03-19T02:54:13;10.60;99.90
3866;DHT22;1948;53.250;10.412;2023-03-19T02:56:40;10.60;99.90
3866;DHT22;1948;53.250;10.412;2023-03-19T02:59:06;10.60;99.90
3866;DHT22;1948;53.250;10.412;2023-03-19T03:01:35;10.60;99.90
3866;DHT22;1948;53.250;10.412;2023-03-19T03:04:02;10.50;99.90
3866;DHT22;1948;53.250;10.412;2023-03-19T03:06:30;10.50;99.90
3866;DHT22;1948;53.250;10.412;2023-03-19T03:08:58;10.50;99.90
3866;DHT22;1948;53.250;10.412;2023-03-19T03:11:24;10.50;99.90
3866;DHT22;1948;53.250;10.412;2023-03-19T03:13:54;10.50;99.90
3866;DHT22;1948;53.250;10.412;2023-03-19T03:16:21;10.40;99.90
3866;DHT22;1948;53.250;10.412;2023-03-19T03:18:48;10.40;99.90
3866;DHT22;1948;53.250;10.412;2023-03-19T03:21:19;10.30;99.90
3866;DHT22;1948;53.250;10.412;2023-03-19T03:23:47;10.30;99.90
3866;DHT22;1948;53.250;10.412;2023-03-19T03:26:16;10.30;99.90
3866;DHT22;1948;53.250;10.412;2023-03-19T03:28:49;10.20;99.90
3866;DHT22;1948;53.250;10.412;2023-03-19T03:31:19;10.20;99.90
3866;DHT22;1948;53.250;10.412;2023-03-19T03:33:49;10.20;99.90
3866;DHT22;1948;53.250;10.412;2023-03-19T03:36:16;10.20;99.90
3866;DHT22;1948;53.250;10.412;2023-03-19T03:38:44;10.20;99.90
3866;DHT22;1948;53.250;10.412;2023-03-19T03:41:11;10.10;99.90
3866;DHT22;1948;53.250;10.412;2023-03-19T03:43:38;10.10;99.90
3866;DHT22;1948;53.250;10.412;2023-03-19T03:46:06;10.10;99.90
3866;DHT22;1948;53.250;10.412;2023-03-19T03:48:35;10.10;99.90
3866;DHT22;1948;53.250;10.412;2023-03-19T03:51:02;10.10;99.90
3866;DHT22;1948;53.250;10.412;2023-03-19T03:53:34;10.00;99.90
3866;DHT22;1948;53.250;10.412;2023-03-19T03:56:01;10.00;99.90
3866;DHT22;1948;53.250;10.412;2023-03-19T03:58:29;10.10;99.90
3866;DHT22;1948;53.250;10.412;2023-03-19T04:00:57;10.10;99.90
3866;DHT22;1948;53.250;10.412;2023-03-19T04:03:26;10.10;99.90
3866;DHT22;1948;53.250;10.412;2023-03-19T04:05:53;10.00;99.90
3866;DHT22;1948;53.250;10.412;2023-03-19T04:08:20;10.00;99.90
3866;DHT22;1948;53.250;10.412;2023-03-19T04:10:48;10.10;99.90
3866;DHT22;1948;53.250;10.412;2023-03-19T04:13:15;10.10;99.90
3866;DHT22;1948;53.250;10.412;2023-03-19T04:15:43;10.10;99.90
3866;DHT22;1948;53.250;10.412;2023-03-19T04:18:12;10.10;99.90
3866;DHT22;1948;53.250;10.412;2023-03-19T04:20:42;10.10;99.90
3866;DHT22;1948;53.250;10.412;2023-03-19T04:23:11;10.00;99.90
3866;DHT22;1948;53.250;10.412;2023-03-19T04:25:39;10.00;99.90
3866;DHT22;1948;53.250;10.412;2023-03-19T04:28:06;10.10;99.90
3866;DHT22;1948;53.250;10.412;2023-03-19T04:30:34;10.00;99.90
3866;DHT22;1948;53.250;10.412;2023-03-19T04:33:02;10.00;99.90
3866;DHT22;1948;53.250;10.412;2023-03-19T04:35:30;10.00;99.90
3866;DHT22;1948;53.250;10.412;2023-03-19T04:37:57;10.00;99.90
3866;DHT22;1948;53.250;10.412;2023-03-19T04:40:24;10.00;99.90
3866;DHT22;1948;53.250;10.412;2023-03-19T04:42:54;9.90;99.90
3866;DHT22;1948;53.250;10.412;2023-03-19T04:45:21;9.90;99.90
3866;DHT22;1948;53.250;10.412;2023-03-19T04:47:51;9.90;99.90
3866;DHT22;1948;53.250;10.412;2023-03-19T04:50:18;9.90;99.90
3866;DHT22;1948;53.250;10.412;2023-03-19T04:52:45;9.90;99.90
3866;DHT22;1948;53.250;10.412;2023-03-19T04:55:12;9.80;99.90
3866;DHT22;1948;53.250;10.412;2023-03-19T04:57:39;9.70;99.90
3866;DHT22;1948;53.250;10.412;2023-03-19T05:00:09;9.70;99.90
3866;DHT22;1948;53.250;10.412;2023-03-19T05:02:37;9.70;99.90
3866;DHT22;1948;53.250;10.412;2023-03-19T05:05:04;9.60;99.90
3866;DHT22;1948;53.250;10.412;2023-03-19T05:07:31;9.60;99.90
3866;DHT22;1948;53.250;10.412;2023-03-19T05:10:01;9.60;99.90
3866;DHT22;1948;53.250;10.412;2023-03-19T05:12:28;9.50;99.90
3866;DHT22;1948;53.250;10.412;2023-03-19T05:14:55;9.50;99.90
3866;DHT22;1948;53.250;10.412;2023-03-19T05:17:27;9.50;99.90
3866;DHT22;1948;53.250;10.412;2023-03-19T05:19:54;9.40;99.90
3866;DHT22;1948;53.250;10.412;2023-03-19T05:22:21;9.30;99.90
3866;DHT22;1948;53.250;10.412;2023-03-19T05:24:49;9.30;99.90
3866;DHT22;1948;53.250;10.412;2023-03-19T05:27:18;9.30;99.90
3866;DHT22;1948;53.250;10.412;2023-03-19T05:29:46;9.30;99.90
3866;DHT22;1948;53.250;10.412;2023-03-19T05:32:13;9.40;99.90
3866;DHT22;1948;53.250;10.412;2023-03-19T05:34:41;9.30;99.90
3866;DHT22;1948;53.250;10.412;2023-03-19T05:37:08;9.40;99.90
3866;DHT22;1948;53.250;10.412;2023-03-19T05:39:35;9.40;99.90
3866;DHT22;1948;53.250;10.412;2023-03-19T05:42:04;9.40;99.90
3866;DHT22;1948;53.250;10.412;2023-03-19T05:44:33;9.50;99.90
3866;DHT22;1948;53.250;10.412;2023-03-19T05:47:03;9.50;99.90
3866;DHT22;1948;53.250;10.412;2023-03-19T05:49:32;9.50;99.90
3866;DHT22;1948;53.250;10.412;2023-03-19T05:51:59;9.60;99.90
3866;DHT22;1948;53.250;10.412;2023-03-19T05:54:26;9.60;99.90
3866;DHT22;1948;53.250;10.412;2023-03-19T05:56:53;9.60;99.90
3866;DHT22;1948;53.250;10.412;2023-03-19T05:59:20;9.70;99.90
3866;DHT22;1948;53.250;10.412;2023-03-19T06:01:51;9.80;99.90
3866;DHT22;1948;53.250;10.412;2023-03-19T06:04:18;10.00;99.90
3866;DHT22;1948;53.250;10.412;2023-03-19T06:06:45;10.20;99.90
3866;DHT22;1948;53.250;10.412;2023-03-19T06:09:13;10.40;99.90
3866;DHT22;1948;53.250;10.412;2023-03-19T06:11:40;10.50;99.90
3866;DHT22;1948;53.250;10.412;2023-03-19T06:14:08;10.50;99.90
3866;DHT22;1948;53.250;10.412;2023-03-19T06:16:35;10.50;99.90
3866;DHT22;1948;53.250;10.412;2023-03-19T06:19:05;10.70;99.90
3866;DHT22;1948;53.250;10.412;2023-03-19T06:21:32;10.90;99.90
3866;DHT22;1948;53.250;10.412;2023-03-19T06:24:01;11.20;99.90
3866;DHT22;1948;53.250;10.412;2023-03-19T06:26:28;11.40;99.90
3866;DHT22;1948;53.250;10.412;2023-03-19T06:28:55;11.60;99.90
3866;DHT22;1948;53.250;10.412;2023-03-19T06:31:22;11.80;99.90
3866;DHT22;1948;53.250;10.412;2023-03-19T06:33:50;12.10;99.90
3866;DHT22;1948;53.250;10.412;2023-03-19T06:36:20;12.20;99.90
3866;DHT22;1948;53.250;10.412;2023-03-19T06:38:47;12.50;99.90
3866;DHT22;1948;53.250;10.412;2023-03-19T06:41:13;12.80;99.90
3866;DHT22;1948;53.250;10.412;2023-03-19T06:43:43;13.20;99.90
3866;DHT22;1948;53.250;10.412;2023-03-19T06:46:10;13.70;99.90
3866;DHT22;1948;53.250;10.412;2023-03-19T06:48:38;14.30;99.90
3866;DHT22;1948;53.250;10.412;2023-03-19T06:51:05;14.70;99.90
3866;DHT22;1948;53.250;10.412;2023-03-19T06:53:32;14.80;99.90
3866;DHT22;1948;53.250;10.412;2023-03-19T06:56:01;15.10;99.90
3866;DHT22;1948;53.250;10.412;2023-03-19T06:58:29;15.40;99.90
3866;DHT22;1948;53.250;10.412;2023-03-19T07:00:58;15.80;99.90
3866;DHT22;1948;53.250;10.412;2023-03-19T07:03:25;16.10;99.90
3866;DHT22;1948;53.250;10.412;2023-03-19T07:05:52;16.10;99.90
3866;DHT22;1948;53.250;10.412;2023-03-19T07:08:19;16.20;99.90
3866;DHT22;1948;53.250;10.412;2023-03-19T07:10:51;16.00;99.90
3866;DHT22;1948;53.250;10.412;2023-03-19T07:13:18;15.60;99.90
3866;DHT22;1948;53.250;10.412;2023-03-19T07:15:48;15.40;99.90
3866;DHT22;1948;53.250;10.412;2023-03-19T07:18:17;15.70;99.90
3866;DHT22;1948;53.250;10.412;2023-03-19T07:20:47;16.10;99.90
3866;DHT22;1948;53.250;10.412;2023-03-19T07:23:14;16.20;99.90
3866;DHT22;1948;53.250;10.412;2023-03-19T07:25:43;16.40;99.90
3866;DHT22;1948;53.250;10.412;2023-03-19T07:28:11;16.90;99.90
3866;DHT22;1948;53.250;10.412;2023-03-19T07:30:38;17.60;99.90
3866;DHT22;1948;53.250;10.412;2023-03-19T07:33:06;17.80;99.90
3866;DHT22;1948;53.250;10.412;2023-03-19T07:35:34;18.20;99.90
3866;DHT22;1948;53.250;10.412;2023-03-19T07:38:01;18.20;99.90
3866;DHT22;1948;53.250;10.412;2023-03-19T07:40:33;18.00;99.90
3866;DHT22;1948;53.250;10.412;2023-03-19T07:43:00;17.50;99.90
3866;DHT22;1948;53.250;10.412;2023-03-19T07:45:28;17.50;99.90
3866;DHT22;1948;53.250;10.412;2023-03-19T07:47:55;17.90;99.90
3866;DHT22;1948;53.250;10.412;2023-03-19T07:50:29;18.90;99.90
3866;DHT22;1948;53.250;10.412;2023-03-19T07:52:58;20.00;99.90
3866;DHT22;1948;53.250;10.412;2023-03-19T07:55:27;20.70;99.90
3866;DHT22;1948;53.250;10.412;2023-03-19T07:57:57;21.20;99.90
3866;DHT22;1948;53.250;10.412;2023-03-19T08:00:24;21.60;99.90
3866;DHT22;1948;53.250;10.412;2023-03-19T08:02:51;22.50;99.90
3866;DHT22;1948;53.250;10.412;2023-03-19T08:05:22;23.50;99.90
3866;DHT22;1948;53.250;10.412;2023-03-19T08:07:51;24.40;99.90
3866;DHT22;1948;53.250;10.412;2023-03-19T08:10:18;25.10;99.90
3866;DHT22;1948;53.250;10.412;2023-03-19T08:12:48;25.20;99.90
3866;DHT22;1948;53.250;10.412;2023-03-19T08:15:18;24.90;99.90
3866;DHT22;1948;53.250;10.412;2023-03-19T08:17:45;24.00;99.90
3866;DHT22;1948;53.250;10.412;2023-03-19T08:20:15;22.70;99.90
3866;DHT22;1948;53.250;10.412;2023-03-19T08:22:42;21.90;99.90
3866;DHT22;1948;53.250;10.412;2023-03-19T08:25:14;21.10;99.90
3866;DHT22;1948;53.250;10.412;2023-03-19T08:27:44;20.50;99.90
3866;DHT22;1948;53.250;10.412;2023-03-19T08:30:12;19.80;99.90
3866;DHT22;1948;53.250;10.412;2023-03-19T08:32:39;19.70;99.90
3866;DHT22;1948;53.250;10.412;2023-03-19T08:35:07;19.80;99.90
3866;DHT22;1948;53.250;10.412;2023-03-19T08:37:36;20.50;99.90
3866;DHT22;1948;53.250;10.412;2023-03-19T08:40:07;20.80;99.90
3866;DHT22;1948;53.250;10.412;2023-03-19T08:42:34;22.00;99.90
3866;DHT22;1948;53.250;10.412;2023-03-19T08:45:04;22.80;99.90
3866;DHT22;1948;53.250;10.412;2023-03-19T08:47:32;22.80;99.90
3866;DHT22;1948;53.250;10.412;2023-03-19T08:49:59;22.20;99.90
3866;DHT22;1948;53.250;10.412;2023-03-19T08:52:27;21.30;99.90
3866;DHT22;1948;53.250;10.412;2023-03-19T08:54:54;20.50;99.90
3866;DHT22;1948;53.250;10.412;2023-03-19T08:57:21;20.30;99.90
3866;DHT22;1948;53.250;10.412;2023-03-19T08:59:48;20.90;99.90
3866;DHT22;1948;53.250;10.412;2023-03-19T09:02:18;22.60;99.90
3866;DHT22;1948;53.250;10.412;2023-03-19T09:04:45;23.90;99.90
3866;DHT22;1948;53.250;10.412;2023-03-19T09:07:12;25.10;99.90
3866;DHT22;1948;53.250;10.412;2023-03-19T09:09:42;26.30;99.90
3866;DHT22;1948;53.250;10.412;2023-03-19T09:12:12;26.90;99.90
3866;DHT22;1948;53.250;10.412;2023-03-19T09:14:41;26.00;99.90
3866;DHT22;1948;53.250;10.412;2023-03-19T09:17:11;25.10;99.90
3866;DHT22;1948;53.250;10.412;2023-03-19T09:19:41;24.50;99.90
3866;DHT22;1948;53.250;10.412;2023-03-19T09:22:08;24.10;99.90
3866;DHT22;1948;53.250;10.412;2023-03-19T09:24:35;24.90;99.90
3866;DHT22;1948;53.250;10.412;2023-03-19T09:27:05;26.70;99.90
3866;DHT22;1948;53.250;10.412;2023-03-19T09:29:32;27.60;99.90
3866;DHT22;1948;53.250;10.412;2023-03-19T09:31:59;27.90;99.90
3866;DHT22;1948;53.250;10.412;2023-03-19T09:34:27;28.60;99.90
3866;DHT22;1948;53.250;10.412;2023-03-19T09:36:54;27.90;99.20
3866;DHT22;1948;53.250;10.412;2023-03-19T09:39:21;27.60;99.80
3866;DHT22;1948;53.250;10.412;2023-03-19T09:44:52;28.60;97.80
3866;DHT22;1948;53.250;10.412;2023-03-19T09:47:33;28.60;97.60
3866;DHT22;1948;53.250;10.412;2023-03-19T09:50:17;29.60;96.90
3866;DHT22;1948;53.250;10.412;2023-03-19T09:53:14;29.00;95.80
3866;DHT22;1948;53.250;10.412;2023-03-19T09:55:49;29.60;95.50
3866;DHT22;1948;53.250;10.412;2023-03-19T09:58:20;30.60;94.90
3866;DHT22;1948;53.250;10.412;2023-03-19T10:00:59;31.70;93.10
3866;DHT22;1948;53.250;10.412;2023-03-19T10:04:32;32.90;91.50
3866;DHT22;1948;53.250;10.412;2023-03-19T10:06:41;33.90;89.40
3866;DHT22;1948;53.250;10.412;2023-03-19T10:09:20;33.90;84.80
3866;DHT22;1948;53.250;10.412;2023-03-19T10:12:14;34.00;82.70
3866;DHT22;1948;53.250;10.412;2023-03-19T10:15:39;34.30;80.70
3866;DHT22;1948;53.250;10.412;2023-03-19T10:20:37;32.70;80.60
3866;DHT22;1948;53.250;10.412;2023-03-19T10:23:24;32.90;80.90
3866;DHT22;1948;53.250;10.412;2023-03-19T10:25:55;33.30;80.10
3866;DHT22;1948;53.250;10.412;2023-03-19T10:28:27;33.20;80.20
3866;DHT22;1948;53.250;10.412;2023-03-19T10:34:18;34.30;77.30
3866;DHT22;1948;53.250;10.412;2023-03-19T10:39:32;34.90;73.90
3866;DHT22;1948;53.250;10.412;2023-03-19T10:42:30;34.10;73.40
3866;DHT22;1948;53.250;10.412;2023-03-19T10:47:51;36.10;71.40
3866;DHT22;1948;53.250;10.412;2023-03-19T10:50:22;35.00;69.70
3866;DHT22;1948;53.250;10.412;2023-03-19T10:53:05;35.50;69.70
3866;DHT22;1948;53.250;10.412;2023-03-19T10:55:34;36.30;67.60
3866;DHT22;1948;53.250;10.412;2023-03-19T10:58:15;35.10;66.00
3866;DHT22;1948;53.250;10.412;2023-03-19T11:00:48;33.80;66.80
3866;DHT22;1948;53.250;10.412;2023-03-19T11:03:37;33.60;67.30
3866;DHT22;1948;53.250;10.412;2023-03-19T11:06:23;33.10;68.70
3866;DHT22;1948;53.250;10.412;2023-03-19T11:09:13;33.20;68.90
3866;DHT22;1948;53.250;10.412;2023-03-19T11:12:18;33.40;68.30
3866;DHT22;1948;53.250;10.412;2023-03-19T11:14:53;32.80;67.50
3866;DHT22;1948;53.250;10.412;2023-03-19T11:17:38;32.60;69.00
3866;DHT22;1948;53.250;10.412;2023-03-19T11:20:18;32.80;68.50
3866;DHT22;1948;53.250;10.412;2023-03-19T11:22:50;32.10;68.80
3866;DHT22;1948;53.250;10.412;2023-03-19T11:36:49;30.00;68.10
3866;DHT22;1948;53.250;10.412;2023-03-19T11:39:29;29.40;70.30
3866;DHT22;1948;53.250;10.412;2023-03-19T11:42:24;29.10;70.00
3866;DHT22;1948;53.250;10.412;2023-03-19T11:48:01;28.60;70.70
3866;DHT22;1948;53.250;10.412;2023-03-19T11:51:13;28.20;72.20
3866;DHT22;1948;53.250;10.412;2023-03-19T11:56:46;27.10;74.50
3866;DHT22;1948;53.250;10.412;2023-03-19T12:02:43;24.70;79.30
3866;DHT22;1948;53.250;10.412;2023-03-19T12:05:34;24.80;81.90
3866;DHT22;1948;53.250;10.412;2023-03-19T12:11:33;27.80;78.80
3866;DHT22;1948;53.250;10.412;2023-03-19T12:17:54;26.90;77.80
3866;DHT22;1948;53.250;10.412;2023-03-19T12:20:24;27.90;78.50
3866;DHT22;1948;53.250;10.412;2023-03-19T12:23:13;29.80;77.20
3866;DHT22;1948;53.250;10.412;2023-03-19T12:28:58;28.60;74.30
3866;DHT22;1948;53.250;10.412;2023-03-19T12:32:10;26.60;76.90
3866;DHT22;1948;53.250;10.412;2023-03-19T12:35:09;25.10;81.20
3866;DHT22;1948;53.250;10.412;2023-03-19T12:40:36;24.70;85.40
3866;DHT22;1948;53.250;10.412;2023-03-19T12:43:20;24.80;85.30
3866;DHT22;1948;53.250;10.412;2023-03-19T12:46:54;23.70;87.80
3866;DHT22;1948;53.250;10.412;2023-03-19T12:51:52;24.40;90.00
3866;DHT22;1948;53.250;10.412;2023-03-19T12:54:26;24.00;90.40
3866;DHT22;1948;53.250;10.412;2023-03-19T12:56:58;23.80;91.00
3866;DHT22;1948;53.250;10.412;2023-03-19T12:59:40;23.70;91.60
3866;DHT22;1948;53.250;10.412;2023-03-19T13:10:45;23.60;93.50
3866;DHT22;1948;53.250;10.412;2023-03-19T13:13:34;23.20;93.80
3866;DHT22;1948;53.250;10.412;2023-03-19T13:19:29;23.20;96.10
3866;DHT22;1948;53.250;10.412;2023-03-19T13:22:11;23.10;96.10
3866;DHT22;1948;53.250;10.412;2023-03-19T13:24:42;22.90;97.10
3866;DHT22;1948;53.250;10.412;2023-03-19T13:27:19;22.60;97.70
3866;DHT22;1948;53.250;10.412;2023-03-19T13:38:19;21.80;99.90
3866;DHT22;1948;53.250;10.412;2023-03-19T13:40:55;21.90;99.90
3866;DHT22;1948;53.250;10.412;2023-03-19T13:59:33;20.50;99.90
3866;DHT22;1948;53.250;10.412;2023-03-19T14:04:54;20.20;99.90
3866;DHT22;1948;53.250;10.412;2023-03-19T14:07:29;20.30;99.90
3866;DHT22;1948;53.250;10.412;2023-03-19T14:10:06;20.60;99.90
3866;DHT22;1948;53.250;10.412;2023-03-19T14:12:42;21.20;99.90
3866;DHT22;1948;53.250;10.412;2023-03-19T14:15:15;22.50;99.90
3866;DHT22;1948;53.250;10.412;2023-03-19T14:26:01;21.60;99.90
3866;DHT22;1948;53.250;10.412;2023-03-19T14:34:32;21.70;99.90
3866;DHT22;1948;53.250;10.412;2023-03-19T14:39:32;21.50;99.90
3866;DHT22;1948;53.250;10.412;2023-03-19T14:54:46;27.20;97.40
3866;DHT22;1948;53.250;10.412;2023-03-19T14:57:27;27.40;97.40
3866;DHT22;1948;53.250;10.412;2023-03-19T14:59:58;27.50;96.90
3866;DHT22;1948;53.250;10.412;2023-03-19T15:02:42;27.80;96.00
3866;DHT22;1948;53.250;10.412;2023-03-19T15:05:28;27.70;95.90
3866;DHT22;1948;53.250;10.412;2023-03-19T15:08:02;28.20;95.20
3866;DHT22;1948;53.250;10.412;2023-03-19T15:18:58;24.40;97.40
3866;DHT22;1948;53.250;10.412;2023-03-19T15:21:28;23.20;99.60
3866;DHT22;1948;53.250;10.412;2023-03-19T15:23:57;22.50;99.90
3866;DHT22;1948;53.250;10.412;2023-03-19T15:26:31;21.70;99.90
3866;DHT22;1948;53.250;10.412;2023-03-19T15:29:00;21.30;99.90
3866;DHT22;1948;53.250;10.412;2023-03-19T15:31:47;20.90;99.90
3866;DHT22;1948;53.250;10.412;2023-03-19T15:34:29;20.30;99.90
3866;DHT22;1948;53.250;10.412;2023-03-19T15:37:03;19.90;99.90
3866;DHT22;1948;53.250;10.412;2023-03-19T15:39:48;19.80;99.90
3866;DHT22;1948;53.250;10.412;2023-03-19T15:42:18;19.70;99.90
3866;DHT22;1948;53.250;10.412;2023-03-19T15:44:49;19.50;99.90
3866;DHT22;1948;53.250;10.412;2023-03-19T15:47:24;19.20;99.90
3866;DHT22;1948;53.250;10.412;2023-03-19T15:50:07;19.10;99.90
3866;DHT22;1948;53.250;10.412;2023-03-19T15:52:53;19.00;99.90
3866;DHT22;1948;53.250;10.412;2023-03-19T15:55:24;18.90;99.90
3866;DHT22;1948;53.250;10.412;2023-03-19T15:57:54;18.80;99.90
3866;DHT22;1948;53.250;10.412;2023-03-19T16:00:27;18.50;99.90
3866;DHT22;1948;53.250;10.412;2023-03-19T16:02:57;18.40;99.90
3866;DHT22;1948;53.250;10.412;2023-03-19T16:05:29;18.20;99.90
3866;DHT22;1948;53.250;10.412;2023-03-19T16:08:01;18.10;99.90
3866;DHT22;1948;53.250;10.412;2023-03-19T16:10:41;18.00;99.90
3866;DHT22;1948;53.250;10.412;2023-03-19T16:13:37;17.90;99.90
3866;DHT22;1948;53.250;10.412;2023-03-19T16:18:49;17.70;99.90
3866;DHT22;1948;53.250;10.412;2023-03-19T16:21:22;17.60;99.90
3866;DHT22;1948;53.250;10.412;2023-03-19T16:24:12;17.40;99.90
3866;DHT22;1948;53.250;10.412;2023-03-19T16:26:53;17.30;99.90
3866;DHT22;1948;53.250;10.412;2023-03-19T16:29:24;17.10;99.90
3866;DHT22;1948;53.250;10.412;2023-03-19T16:31:59;17.00;99.90
3866;DHT22;1948;53.250;10.412;2023-03-19T16:37:51;16.90;99.90
3866;DHT22;1948;53.250;10.412;2023-03-19T16:47:53;17.60;99.90
3866;DHT22;1948;53.250;10.412;2023-03-19T16:50:39;17.70;99.90
3866;DHT22;1948;53.250;10.412;2023-03-19T16:53:29;17.70;99.90
3866;DHT22;1948;53.250;10.412;2023-03-19T16:55:58;17.70;99.90
3866;DHT22;1948;53.250;10.412;2023-03-19T16:58:37;17.60;99.90
3866;DHT22;1948;53.250;10.412;2023-03-19T17:01:28;17.30;99.90
3866;DHT22;1948;53.250;10.412;2023-03-19T17:03:55;17.10;99.90
3866;DHT22;1948;53.250;10.412;2023-03-19T17:06:25;16.90;99.90
3866;DHT22;1948;53.250;10.412;2023-03-19T17:08:57;16.80;99.90
3866;DHT22;1948;53.250;10.412;2023-03-19T17:11:28;16.60;99.90
3866;DHT22;1948;53.250;10.412;2023-03-19T17:13:58;16.40;99.90
3866;DHT22;1948;53.250;10.412;2023-03-19T17:16:26;16.20;99.90
3866;DHT22;1948;53.250;10.412;2023-03-19T17:18:58;16.10;99.90
3866;DHT22;1948;53.250;10.412;2023-03-19T17:21:30;16.00;99.90
3866;DHT22;1948;53.250;10.412;2023-03-19T17:24:32;15.90;99.90
3866;DHT22;1948;53.250;10.412;2023-03-19T17:27:01;15.90;99.90
3866;DHT22;1948;53.250;10.412;2023-03-19T17:29:29;15.80;99.90
3866;DHT22;1948;53.250;10.412;2023-03-19T17:31:58;15.70;99.90
3866;DHT22;1948;53.250;10.412;2023-03-19T17:34:28;15.70;99.90
3866;DHT22;1948;53.250;10.412;2023-03-19T17:37:02;15.70;99.90
3866;DHT22;1948;53.250;10.412;2023-03-19T17:39:32;15.60;99.90
3866;DHT22;1948;53.250;10.412;2023-03-19T17:41:59;15.50;99.90
3866;DHT22;1948;53.250;10.412;2023-03-19T17:44:26;15.50;99.90
3866;DHT22;1948;53.250;10.412;2023-03-19T17:46:54;15.40;99.90
3866;DHT22;1948;53.250;10.412;2023-03-19T17:49:29;15.40;99.90
3866;DHT22;1948;53.250;10.412;2023-03-19T17:52:01;15.30;99.90
3866;DHT22;1948;53.250;10.412;2023-03-19T17:54:28;15.30;99.90
3866;DHT22;1948;53.250;10.412;2023-03-19T17:56:57;15.20;99.90
3866;DHT22;1948;53.250;10.412;2023-03-19T17:59:27;15.20;99.90
3866;DHT22;1948;53.250;10.412;2023-03-19T18:01:54;15.20;99.90
3866;DHT22;1948;53.250;10.412;2023-03-19T18:04:21;15.10;99.90
3866;DHT22;1948;53.250;10.412;2023-03-19T18:06:57;15.10;99.90
3866;DHT22;1948;53.250;10.412;2023-03-19T18:09:25;15.00;99.90
3866;DHT22;1948;53.250;10.412;2023-03-19T18:11:58;14.90;99.90
3866;DHT22;1948;53.250;10.412;2023-03-19T18:14:25;14.90;99.90
3866;DHT22;1948;53.250;10.412;2023-03-19T18:16:57;14.80;99.90
3866;DHT22;1948;53.250;10.412;2023-03-19T18:19:30;14.80;99.90
3866;DHT22;1948;53.250;10.412;2023-03-19T18:21:58;14.70;99.90
3866;DHT22;1948;53.250;10.412;2023-03-19T18:24:28;14.70;99.90
3866;DHT22;1948;53.250;10.412;2023-03-19T18:26:55;14.60;99.90
3866;DHT22;1948;53.250;10.412;2023-03-19T18:29:22;14.60;99.90
3866;DHT22;1948;53.250;10.412;2023-03-19T18:31:50;14.50;99.90
3866;DHT22;1948;53.250;10.412;2023-03-19T18:34:17;14.50;99.90
3866;DHT22;1948;53.250;10.412;2023-03-19T18:36:45;14.40;99.90
3866;DHT22;1948;53.250;10.412;2023-03-19T18:39:13;14.30;99.90
3866;DHT22;1948;53.250;10.412;2023-03-19T18:41:43;14.30;99.90
3866;DHT22;1948;53.250;10.412;2023-03-19T18:44:10;14.10;99.90
3866;DHT22;1948;53.250;10.412;2023-03-19T18:46:38;14.10;99.90